createdAt,value
2018-08-17T00:01:07.610Z,26.65
2018-08-17T00:03:36.159Z,28.83
2018-08-17T00:06:04.768Z,27.50
2018-08-17T00:08:33.325Z,25.90
2018-08-17T00:11:02.760Z,27.62
2018-08-17T00:13:31.182Z,25.92
2018-08-17T00:15:59.642Z,27.30
2018-08-17T00:18:27.984Z,27.45
2018-08-17T00:20:56.458Z,26.97
2018-08-17T00:23:24.827Z,27.60
2018-08-17T00:25:53.295Z,26.85
2018-08-17T00:28:21.828Z,27.02
2018-08-17T00:30:50.905Z,27.32
2018-08-17T00:33:19.364Z,24.67
2018-08-17T00:35:47.924Z,26.87
2018-08-17T00:38:16.399Z,28.27
2018-08-17T00:40:45.870Z,26.42
2018-08-17T00:43:14.406Z,26.42
2018-08-17T00:45:42.995Z,24.87
2018-08-17T00:48:11.638Z,26.17
2018-08-17T00:50:40.110Z,27.00
2018-08-17T00:53:08.519Z,25.65
2018-08-17T00:55:36.977Z,24.95
2018-08-17T00:58:05.368Z,26.52
2018-08-17T01:00:33.801Z,27.00
2018-08-17T01:03:02.239Z,25.70
2018-08-17T01:05:30.602Z,23.67
2018-08-17T01:07:59.042Z,27.75
2018-08-17T01:10:27.462Z,25.75
2018-08-17T01:12:56.074Z,27.70
2018-08-17T01:15:24.630Z,27.58
2018-08-17T01:17:53.151Z,25.50
2018-08-17T01:20:21.516Z,25.90
2018-08-17T01:22:49.982Z,26.82
2018-08-17T01:25:18.387Z,25.48
2018-08-17T01:27:46.848Z,25.48
2018-08-17T01:30:15.734Z,26.30
2018-08-17T01:32:44.219Z,26.57
2018-08-17T01:35:12.606Z,25.08
2018-08-17T01:37:41.390Z,25.23
2018-08-17T01:40:09.795Z,27.17
2018-08-17T01:42:38.235Z,24.70
2018-08-17T01:45:06.699Z,24.60
2018-08-17T01:47:35.082Z,24.63
2018-08-17T01:50:03.553Z,23.77
2018-08-17T01:52:31.893Z,23.92
2018-08-17T01:55:00.326Z,24.30
2018-08-17T01:57:28.703Z,24.70
2018-08-17T01:59:57.136Z,24.57
2018-08-17T02:02:25.543Z,24.63
2018-08-17T02:04:53.922Z,25.45
2018-08-17T02:07:22.403Z,25.80
2018-08-17T02:09:50.858Z,24.90
2018-08-17T02:12:19.256Z,25.45
2018-08-17T02:14:47.736Z,25.02
2018-08-17T02:17:16.097Z,23.22
2018-08-17T02:19:44.476Z,23.40
2018-08-17T02:22:12.867Z,24.72
2018-08-17T02:24:41.266Z,22.37
2018-08-17T02:27:09.666Z,25.10
2018-08-17T02:29:38.026Z,24.77
2018-08-17T02:32:06.596Z,25.00
2018-08-17T02:34:35.026Z,25.17
2018-08-17T02:37:03.513Z,24.70
2018-08-17T02:39:31.892Z,27.37
2018-08-17T02:42:00.298Z,26.85
2018-08-17T02:44:28.777Z,26.10
2018-08-17T02:46:57.188Z,27.32
2018-08-17T02:49:25.598Z,25.27
2018-08-17T02:51:53.991Z,26.23
2018-08-17T02:54:22.374Z,24.90
2018-08-17T02:56:50.755Z,25.50
2018-08-17T02:59:19.219Z,25.65
2018-08-17T03:01:47.698Z,25.23
2018-08-17T03:04:16.135Z,24.52
2018-08-17T03:06:44.528Z,23.55
2018-08-17T03:09:13.030Z,22.70
2018-08-17T03:11:41.808Z,23.12
2018-08-17T03:14:10.262Z,22.67
2018-08-17T03:16:38.642Z,24.35
2018-08-17T03:19:07.112Z,22.48
2018-08-17T03:21:35.542Z,23.07
2018-08-17T03:24:04.032Z,22.32
2018-08-17T03:26:32.407Z,23.52
2018-08-17T03:29:00.849Z,23.00
2018-08-17T03:31:29.203Z,22.48
2018-08-17T03:33:57.570Z,23.75
2018-08-17T03:36:26.034Z,24.85
2018-08-17T03:38:54.422Z,22.93
2018-08-17T03:41:22.834Z,23.98
2018-08-17T03:43:51.271Z,25.20
2018-08-17T03:46:19.690Z,24.63
2018-08-17T03:48:48.124Z,24.95
2018-08-17T03:51:16.578Z,25.62
2018-08-17T03:53:45.103Z,22.58
2018-08-17T03:56:13.515Z,23.98
2018-08-17T03:58:41.907Z,24.40
2018-08-17T04:01:10.316Z,25.15
2018-08-17T04:03:38.683Z,24.15
2018-08-17T04:06:07.104Z,22.82
2018-08-17T04:08:35.458Z,25.55
2018-08-17T04:11:03.862Z,24.82
2018-08-17T04:13:32.430Z,25.08
2018-08-17T04:16:01.612Z,24.90
2018-08-17T04:18:30.369Z,25.95
2018-08-17T04:20:59.393Z,24.07
2018-08-17T04:23:27.796Z,26.33
2018-08-17T04:25:56.278Z,27.62
2018-08-17T04:28:24.996Z,26.97
2018-08-17T04:30:53.470Z,27.37
2018-08-17T04:33:21.910Z,26.73
2018-08-17T04:35:50.299Z,26.77
2018-08-17T04:38:18.734Z,28.67
2018-08-17T04:40:47.099Z,30.17
2018-08-17T04:43:16.063Z,30.75
2018-08-17T04:45:44.406Z,30.82
2018-08-17T04:48:12.803Z,31.50
2018-08-17T04:50:41.795Z,32.60
2018-08-17T04:53:10.368Z,33.65
2018-08-17T04:55:39.895Z,33.98
2018-08-17T04:58:08.360Z,36.33
2018-08-17T05:00:36.762Z,34.83
2018-08-17T05:03:05.169Z,34.33
2018-08-17T05:05:33.577Z,34.67
2018-08-17T05:08:01.959Z,37.05
2018-08-17T05:10:30.375Z,35.78
2018-08-17T05:12:58.866Z,34.75
2018-08-17T05:15:27.303Z,37.13
2018-08-17T05:17:55.806Z,36.10
2018-08-17T05:20:24.411Z,34.58
2018-08-17T05:22:52.851Z,38.00
2018-08-17T05:25:21.212Z,35.55
2018-08-17T05:27:49.625Z,37.17
2018-08-17T05:30:18.229Z,34.48
2018-08-17T05:32:46.673Z,36.10
2018-08-17T05:35:15.186Z,34.18
2018-08-17T05:37:43.754Z,34.95
2018-08-17T05:40:12.306Z,37.05
2018-08-17T05:42:40.751Z,33.88
2018-08-17T05:45:09.949Z,34.92
2018-08-17T05:47:38.498Z,33.50
2018-08-17T05:50:07.718Z,33.20
2018-08-17T05:52:36.251Z,34.65
2018-08-17T05:55:05.106Z,37.90
2018-08-17T05:57:33.775Z,36.05
2018-08-17T06:00:02.191Z,34.92
2018-08-17T06:02:30.632Z,34.45
2018-08-17T06:04:59.069Z,33.15
2018-08-17T06:07:27.516Z,34.10
2018-08-17T06:09:55.981Z,34.23
2018-08-17T06:12:24.969Z,34.13
2018-08-17T06:14:53.402Z,31.90
2018-08-17T06:17:21.810Z,30.92
2018-08-17T06:19:50.194Z,32.17
2018-08-17T06:22:21.355Z,32.65
2018-08-17T06:24:51.070Z,30.92
2018-08-17T06:27:19.867Z,33.63
2018-08-17T06:29:48.639Z,34.08
2018-08-17T06:32:17.075Z,32.17
2018-08-17T06:34:45.524Z,31.73
2018-08-17T06:37:13.995Z,32.53
2018-08-17T06:39:42.322Z,33.00
2018-08-17T06:42:10.740Z,33.90
2018-08-17T06:44:39.208Z,32.25
2018-08-17T06:47:07.699Z,33.33
2018-08-17T06:49:36.151Z,32.25
2018-08-17T06:52:04.611Z,34.18
2018-08-17T06:54:32.990Z,32.33
2018-08-17T06:57:01.464Z,31.93
2018-08-17T06:59:29.886Z,31.80
2018-08-17T07:01:58.308Z,32.95
2018-08-17T07:04:26.703Z,31.90
2018-08-17T07:06:55.121Z,33.05
2018-08-17T07:09:23.617Z,31.62
2018-08-17T07:11:51.962Z,31.45
2018-08-17T07:14:20.370Z,32.28
2018-08-17T07:16:48.806Z,32.08
2018-08-17T07:19:17.203Z,31.33
2018-08-17T07:21:45.611Z,28.45
2018-08-17T07:24:14.036Z,29.70
2018-08-17T07:26:42.427Z,31.02
2018-08-17T07:29:10.983Z,31.65
2018-08-17T07:31:40.468Z,28.85
2018-08-17T07:34:08.924Z,29.80
2018-08-17T07:36:37.431Z,29.87
2018-08-17T07:39:07.642Z,29.72
2018-08-17T07:41:36.321Z,29.23
2018-08-17T07:44:05.010Z,27.58
2018-08-17T07:46:33.467Z,31.07
2018-08-17T07:49:02.133Z,28.02
2018-08-17T07:51:30.648Z,29.32
2018-08-17T07:54:00.308Z,28.70
2018-08-17T07:56:28.944Z,28.27
2018-08-17T07:58:57.371Z,26.00
2018-08-17T08:01:25.722Z,28.05
2018-08-17T08:03:54.152Z,29.23
2018-08-17T08:06:22.562Z,28.10
2018-08-17T08:08:51.084Z,26.90
2018-08-17T08:11:19.507Z,27.27
2018-08-17T08:13:48.103Z,25.30
2018-08-17T08:16:16.563Z,26.87
2018-08-17T08:18:44.968Z,26.05
2018-08-17T08:21:13.880Z,25.72
2018-08-17T08:23:42.247Z,25.88
2018-08-17T08:26:11.899Z,24.75
2018-08-17T08:28:40.454Z,24.72
2018-08-17T08:31:08.917Z,25.37
2018-08-17T08:33:37.348Z,24.63
2018-08-17T08:36:05.831Z,24.45
2018-08-17T08:38:34.366Z,24.98
2018-08-17T08:41:02.819Z,26.20
2018-08-17T08:43:31.354Z,25.10
2018-08-17T08:45:59.870Z,23.25
2018-08-17T08:48:28.743Z,27.22
2018-08-17T08:50:57.182Z,24.67
2018-08-17T08:53:25.612Z,25.48
2018-08-17T08:55:55.080Z,25.65
2018-08-17T08:58:23.564Z,25.27
2018-08-17T09:00:51.941Z,24.47
2018-08-17T09:03:21.379Z,24.70
2018-08-17T09:05:49.904Z,26.33
2018-08-17T09:08:18.412Z,26.80
2018-08-17T09:10:47.461Z,26.70
2018-08-17T09:13:15.990Z,26.25
2018-08-17T09:15:44.436Z,26.80
2018-08-17T09:18:12.984Z,28.98
2018-08-17T09:20:41.471Z,29.32
2018-08-17T09:23:09.916Z,29.10
2018-08-17T09:25:38.343Z,27.70
2018-08-17T09:28:06.838Z,27.40
2018-08-17T09:30:35.423Z,26.68
2018-08-17T09:33:04.103Z,26.95
2018-08-17T09:35:32.732Z,24.90
2018-08-17T09:38:01.303Z,26.57
2018-08-17T09:40:29.894Z,27.00
2018-08-17T09:42:58.465Z,27.35
2018-08-17T09:45:27.002Z,26.48
2018-08-17T09:47:55.475Z,28.35
2018-08-17T09:50:24.080Z,28.42
2018-08-17T09:52:52.524Z,28.10
2018-08-17T09:55:21.091Z,28.15
2018-08-17T09:57:49.492Z,28.42
2018-08-17T10:00:17.938Z,27.93
2018-08-17T10:02:51.482Z,27.22
2018-08-17T10:05:26.122Z,26.30
2018-08-17T10:07:59.795Z,24.95
2018-08-17T10:10:28.374Z,22.58
2018-08-17T10:12:56.851Z,20.62
2018-08-17T10:15:26.131Z,17.32
2018-08-17T10:17:54.751Z,17.87
2018-08-17T10:20:23.993Z,19.37
2018-08-17T10:22:52.509Z,16.37
2018-08-17T10:25:22.232Z,16.02
2018-08-17T10:27:52.801Z,15.45
2018-08-17T10:30:21.983Z,14.68
2018-08-17T10:32:55.264Z,15.15
2018-08-17T10:35:24.840Z,14.15
2018-08-17T10:37:55.376Z,12.82
2018-08-17T10:40:24.477Z,15.13
2018-08-17T10:42:52.980Z,16.67
2018-08-17T10:45:22.699Z,16.42
2018-08-17T10:47:51.858Z,16.52
2018-08-17T10:50:22.280Z,15.55
2018-08-17T10:52:52.767Z,16.07
2018-08-17T10:55:22.445Z,16.00
2018-08-17T10:57:51.146Z,16.60
2018-08-17T11:00:21.029Z,14.75
2018-08-17T11:02:50.232Z,14.87
2018-08-17T11:05:19.135Z,13.90
2018-08-17T11:07:48.823Z,16.27
2018-08-17T11:10:17.303Z,15.45
2018-08-17T11:12:47.527Z,13.90
2018-08-17T11:15:15.957Z,13.72
2018-08-17T11:17:45.518Z,13.48
2018-08-17T11:20:15.852Z,14.25
2018-08-17T11:22:45.061Z,14.78
2018-08-17T11:25:13.607Z,16.12
2018-08-17T11:27:42.016Z,15.58
2018-08-17T11:30:12.326Z,16.25
2018-08-17T11:32:41.351Z,16.95
2018-08-17T11:35:09.826Z,16.75
2018-08-17T11:37:38.447Z,14.00
2018-08-17T11:40:08.735Z,14.25
2018-08-17T11:42:44.280Z,14.83
2018-08-17T11:45:16.103Z,16.40
2018-08-17T11:47:45.315Z,15.08
2018-08-17T11:50:16.300Z,17.10
2018-08-17T11:52:52.962Z,18.87
2018-08-17T11:55:22.422Z,18.00
2018-08-17T11:57:51.167Z,20.15
2018-08-17T12:00:20.593Z,18.05
2018-08-17T12:02:49.180Z,19.05
2018-08-17T12:05:17.966Z,17.98
2018-08-17T12:07:47.268Z,18.25
2018-08-17T12:10:15.976Z,16.50
2018-08-17T12:12:45.272Z,17.60
2018-08-17T12:15:14.616Z,17.17
2018-08-17T12:17:43.089Z,16.90
2018-08-17T12:20:11.605Z,18.48
2018-08-17T12:22:40.032Z,17.80
2018-08-17T12:25:09.128Z,16.75
2018-08-17T12:27:37.645Z,17.40
2018-08-17T12:30:07.362Z,16.20
2018-08-17T12:32:35.884Z,16.48
2018-08-17T12:35:04.469Z,15.35
2018-08-17T12:37:32.866Z,15.28
2018-08-17T12:40:01.354Z,15.50
2018-08-17T12:42:29.982Z,16.20
2018-08-17T12:45:02.761Z,15.93
2018-08-17T12:47:31.801Z,15.20
2018-08-17T12:50:00.252Z,15.58
2018-08-17T12:52:28.788Z,15.63
2018-08-17T12:54:57.234Z,16.05
2018-08-17T12:57:29.938Z,17.32
2018-08-17T13:00:11.304Z,16.87
2018-08-17T13:02:40.065Z,18.25
2018-08-17T13:05:08.676Z,16.67
2018-08-17T13:07:37.183Z,16.20
2018-08-17T13:10:06.382Z,17.52
2018-08-17T13:12:34.892Z,18.25
2018-08-17T13:15:04.493Z,17.92
2018-08-17T13:17:48.630Z,18.50
2018-08-17T13:20:17.840Z,20.37
2018-08-17T13:22:46.353Z,19.75
2018-08-17T13:25:14.876Z,18.80
2018-08-17T13:27:43.351Z,19.00
2018-08-17T13:30:14.377Z,21.33
2018-08-17T13:32:43.744Z,18.85
2018-08-17T13:35:14.085Z,19.62
2018-08-17T13:37:43.165Z,20.02
2018-08-17T13:40:12.044Z,18.32
2018-08-17T13:42:40.645Z,18.23
2018-08-17T13:45:10.240Z,18.92
2018-08-17T13:47:39.738Z,18.50
2018-08-17T13:50:08.253Z,19.25
2018-08-17T13:52:36.769Z,18.40
2018-08-17T13:55:05.495Z,19.02
2018-08-17T13:57:33.959Z,19.10
2018-08-17T14:00:02.552Z,19.57
2018-08-17T14:02:31.079Z,19.70
2018-08-17T14:04:59.616Z,20.72
2018-08-17T14:07:28.175Z,19.75
2018-08-17T14:09:56.766Z,18.90
2018-08-17T14:12:25.336Z,18.60
2018-08-17T14:14:55.032Z,17.62
2018-08-17T14:17:24.965Z,18.48
2018-08-17T14:19:54.776Z,19.87
2018-08-17T14:22:24.642Z,18.20
2018-08-17T14:24:54.662Z,18.60
2018-08-17T14:27:24.727Z,18.85
2018-08-17T14:29:54.396Z,18.65
2018-08-17T14:32:24.576Z,19.02
2018-08-17T14:34:54.944Z,18.70
2018-08-17T14:37:25.013Z,20.65
2018-08-17T14:39:53.642Z,19.02
2018-08-17T14:42:22.103Z,19.73
2018-08-17T14:44:50.702Z,19.02
2018-08-17T14:47:19.722Z,19.25
2018-08-17T14:49:48.248Z,19.60
2018-08-17T14:52:16.767Z,18.32
2018-08-17T14:54:45.337Z,17.55
2018-08-17T14:57:13.914Z,18.95
2018-08-17T14:59:42.504Z,21.80
2018-08-17T15:02:11.031Z,18.00
2018-08-17T15:04:41.306Z,17.60
2018-08-17T15:07:09.882Z,19.45
2018-08-17T15:09:38.874Z,18.75
2018-08-17T15:12:07.492Z,18.07
2018-08-17T15:14:35.897Z,19.85
2018-08-17T15:17:04.502Z,17.90
2018-08-17T15:19:32.916Z,18.30
2018-08-17T15:22:01.673Z,18.95
2018-08-17T15:24:31.155Z,18.95
2018-08-17T15:26:59.812Z,18.30
2018-08-17T15:29:28.348Z,19.73
2018-08-17T15:31:56.828Z,18.17
2018-08-17T15:34:25.482Z,19.12
2018-08-17T15:36:54.008Z,19.15
2018-08-17T15:39:22.622Z,18.98
2018-08-17T15:41:51.281Z,18.95
2018-08-17T15:44:23.911Z,18.50
2018-08-17T15:46:52.768Z,19.40
2018-08-17T15:49:27.322Z,17.65
2018-08-17T15:51:55.891Z,18.95
2018-08-17T15:54:24.968Z,19.37
2018-08-17T15:56:53.665Z,20.30
2018-08-17T15:59:23.623Z,19.57
2018-08-17T16:01:52.682Z,19.60
2018-08-17T16:04:21.141Z,20.35
2018-08-17T16:06:49.664Z,19.95
2018-08-17T16:11:58.399Z,21.40
2018-08-17T16:14:26.912Z,20.45
2018-08-17T16:16:55.538Z,20.65
2018-08-17T16:19:23.993Z,21.27
2018-08-17T16:21:52.483Z,21.90
2018-08-17T16:24:20.973Z,19.67
2018-08-17T16:26:49.539Z,19.60
2018-08-17T16:29:17.979Z,20.55
2018-08-17T16:31:46.496Z,22.15
2018-08-17T16:34:15.013Z,20.80
2018-08-17T16:36:43.475Z,21.70
2018-08-17T16:39:15.132Z,22.20
2018-08-17T16:41:43.895Z,21.85
2018-08-17T16:44:12.770Z,20.72
2018-08-17T16:46:42.494Z,21.45
2018-08-17T16:49:10.950Z,21.87
2018-08-17T16:51:40.130Z,20.92
2018-08-17T16:54:08.673Z,23.35
2018-08-17T16:56:37.463Z,20.95
2018-08-17T16:59:06.242Z,22.15
2018-08-17T17:01:34.674Z,22.48
2018-08-17T17:04:03.231Z,21.55
2018-08-17T17:06:31.902Z,21.57
2018-08-17T17:09:01.815Z,20.82
2018-08-17T17:11:30.428Z,22.17
2018-08-17T17:14:00.486Z,20.88
2018-08-17T17:16:49.414Z,22.35
2018-08-17T17:19:19.641Z,20.97
2018-08-17T17:21:49.277Z,19.30
2018-08-17T17:24:18.370Z,20.00
2018-08-17T17:26:46.818Z,19.98
2018-08-17T17:29:15.295Z,20.62
2018-08-17T17:31:47.220Z,19.12
2018-08-17T17:34:15.615Z,19.50
2018-08-17T17:36:44.064Z,20.40
2018-08-17T17:39:13.932Z,19.92
2018-08-17T17:41:43.079Z,20.05
2018-08-17T17:44:11.573Z,20.43
2018-08-17T17:46:40.617Z,20.00
2018-08-17T17:49:09.554Z,19.85
2018-08-17T17:51:38.061Z,22.00
2018-08-17T17:54:06.667Z,20.30
2018-08-17T17:56:35.178Z,22.80
2018-08-17T17:59:09.019Z,21.17
2018-08-17T18:01:37.471Z,20.45
2018-08-17T18:04:06.048Z,19.52
2018-08-17T18:06:34.546Z,19.05
2018-08-17T18:09:03.058Z,19.77
2018-08-17T18:11:31.506Z,18.23
2018-08-17T18:14:00.044Z,18.45
2018-08-17T18:16:28.698Z,20.40
2018-08-17T18:18:57.155Z,19.98
2018-08-17T18:21:30.243Z,20.05
2018-08-17T18:24:02.799Z,19.07
2018-08-17T18:26:31.262Z,19.73
2018-08-17T18:28:59.842Z,19.48
2018-08-17T18:31:28.322Z,19.60
2018-08-17T18:33:57.064Z,19.07
2018-08-17T18:36:25.619Z,20.02
2018-08-17T18:38:54.206Z,19.15
2018-08-17T18:41:22.791Z,18.80
2018-08-17T18:43:51.293Z,19.32
2018-08-17T18:46:19.883Z,20.08
2018-08-17T18:48:48.502Z,17.85
2018-08-17T18:51:17.025Z,18.95
2018-08-17T18:53:45.620Z,18.87
2018-08-17T18:56:14.278Z,19.50
2018-08-17T18:58:42.757Z,19.27
2018-08-17T19:01:11.292Z,19.70
2018-08-17T19:03:39.885Z,19.32
2018-08-17T19:06:08.492Z,17.85
2018-08-17T19:08:37.306Z,18.82
2018-08-17T19:11:05.870Z,19.90
2018-08-17T19:13:34.569Z,19.55
2018-08-17T19:16:03.148Z,20.48
2018-08-17T19:18:32.753Z,20.02
2018-08-17T19:21:06.273Z,20.25
2018-08-17T19:23:35.090Z,19.10
2018-08-17T19:26:03.723Z,20.23
2018-08-17T19:28:32.310Z,20.15
2018-08-17T19:31:01.230Z,20.68
2018-08-17T19:33:29.823Z,20.60
2018-08-17T19:35:58.604Z,19.60
2018-08-17T19:38:27.220Z,20.90
2018-08-17T19:40:55.890Z,21.27
2018-08-17T19:43:24.471Z,20.35
2018-08-17T19:45:52.997Z,21.07
2018-08-17T19:48:21.511Z,21.62
2018-08-17T19:50:50.023Z,21.73
2018-08-17T19:53:18.580Z,22.30
2018-08-17T19:55:47.138Z,22.05
2018-08-17T19:58:16.206Z,21.33
2018-08-17T20:00:45.079Z,22.17
2018-08-17T20:03:13.986Z,22.52
2018-08-17T20:05:42.806Z,20.75
2018-08-17T20:08:11.315Z,20.75
2018-08-17T20:10:39.988Z,21.35
2018-08-17T20:13:08.634Z,20.95
2018-08-17T20:15:37.330Z,20.97
2018-08-17T20:18:06.664Z,23.07
2018-08-17T20:20:35.300Z,22.77
2018-08-17T20:23:04.420Z,22.70
2018-08-17T20:25:32.973Z,20.40
2018-08-17T20:28:01.623Z,21.30
2018-08-17T20:30:30.360Z,20.20
2018-08-17T20:33:00.961Z,19.70
2018-08-17T20:35:31.048Z,22.25
2018-08-17T20:37:59.771Z,22.82
2018-08-17T20:40:29.347Z,21.85
2018-08-17T20:42:58.086Z,21.48
2018-08-17T20:45:26.879Z,22.40
2018-08-17T20:47:55.558Z,22.20
2018-08-17T20:50:25.869Z,22.73
2018-08-17T20:52:58.740Z,21.45
2018-08-17T20:55:28.205Z,22.37
2018-08-17T20:57:57.542Z,22.80
2018-08-17T21:00:27.628Z,22.52
2018-08-17T21:02:56.845Z,22.30
2018-08-17T21:05:26.628Z,22.55
2018-08-17T21:07:55.521Z,21.97
2018-08-17T21:10:24.465Z,23.07
2018-08-17T21:12:52.937Z,22.17
2018-08-17T21:15:21.427Z,22.48
2018-08-17T21:17:50.142Z,21.68
2018-08-17T21:20:18.848Z,22.85
2018-08-17T21:22:47.487Z,22.90
2018-08-17T21:25:16.142Z,23.35
2018-08-17T21:27:44.653Z,21.12
2018-08-17T21:30:13.375Z,23.50
2018-08-17T21:32:42.980Z,22.30
2018-08-17T21:35:11.552Z,23.25
2018-08-17T21:37:40.741Z,21.07
2018-08-17T21:40:15.683Z,23.45
2018-08-17T21:42:45.283Z,22.60
2018-08-17T21:45:14.816Z,21.48
2018-08-17T21:47:44.115Z,23.05
2018-08-17T21:50:14.512Z,22.27
2018-08-17T21:52:43.771Z,22.73
2018-08-17T21:55:12.625Z,22.58
2018-08-17T21:57:42.585Z,22.13
2018-08-17T22:00:19.719Z,21.87
2018-08-17T22:02:48.376Z,22.32
2018-08-17T22:05:21.000Z,22.02
2018-08-17T22:07:49.596Z,21.87
2018-08-17T22:10:18.166Z,22.17
2018-08-17T22:12:46.769Z,21.93
2018-08-17T22:15:15.603Z,22.15
2018-08-17T22:17:44.161Z,22.30
2018-08-17T22:20:13.541Z,22.37
2018-08-17T22:22:42.541Z,22.70
2018-08-17T22:25:12.938Z,21.15
2018-08-17T22:27:41.598Z,21.97
2018-08-17T22:30:21.247Z,21.82
2018-08-17T22:32:49.887Z,21.80
2018-08-17T22:35:18.553Z,22.70
2018-08-17T22:37:47.028Z,20.97
2018-08-17T22:40:15.780Z,21.97
2018-08-17T22:42:46.633Z,21.82
2018-08-17T22:45:16.038Z,22.35
2018-08-17T22:47:44.944Z,21.37
2018-08-17T22:50:13.387Z,22.15
2018-08-17T22:52:41.956Z,21.90
2018-08-17T22:55:10.612Z,22.13
2018-08-17T22:57:39.162Z,21.87
2018-08-17T23:00:16.577Z,22.15
2018-08-17T23:02:45.948Z,22.32
2018-08-17T23:05:16.551Z,22.93
2018-08-17T23:07:45.174Z,21.97
2018-08-17T23:10:18.102Z,22.02
2018-08-17T23:12:47.786Z,22.32
2018-08-17T23:15:16.245Z,22.55
2018-08-17T23:17:46.442Z,22.05
2018-08-17T23:20:15.247Z,21.97
2018-08-17T23:22:50.158Z,21.52
2018-08-17T23:25:18.691Z,21.50
2018-08-17T23:27:47.929Z,20.90
2018-08-17T23:30:16.363Z,22.95
2018-08-17T23:32:45.369Z,22.55
2018-08-17T23:35:13.808Z,22.60
2018-08-17T23:37:42.286Z,20.97
2018-08-17T23:40:10.839Z,22.27
2018-08-17T23:42:39.342Z,21.45
2018-08-17T23:45:10.859Z,21.55
2018-08-17T23:47:39.352Z,22.35
2018-08-17T23:50:09.502Z,22.65
2018-08-17T23:52:38.072Z,22.07
2018-08-17T23:55:07.391Z,22.60
2018-08-17T23:57:36.079Z,22.00
